createdAt,value
2022-07-25T00:03:58.177Z,7.63
2022-07-25T00:08:54.463Z,6.93
2022-07-25T00:13:50.694Z,6.15
2022-07-25T00:18:46.945Z,5.10
2022-07-25T00:23:43.206Z,5.38
2022-07-25T00:28:39.471Z,5.35
2022-07-25T00:33:35.977Z,5.40
2022-07-25T00:38:32.276Z,5.05
2022-07-25T00:43:28.584Z,5.32
2022-07-25T00:48:25.360Z,5.40
2022-07-25T00:53:22.072Z,4.45
2022-07-25T00:58:18.784Z,5.50
2022-07-25T01:08:21.320Z,5.43
2022-07-25T01:13:17.666Z,4.72
2022-07-25T01:18:14.017Z,5.45
2022-07-25T01:23:10.272Z,5.25
2022-07-25T01:28:06.506Z,5.63
2022-07-25T01:33:06.662Z,5.32
2022-07-25T01:38:04.681Z,5.28
2022-07-25T01:43:00.938Z,4.70
2022-07-25T01:47:57.198Z,5.55
2022-07-25T01:52:53.489Z,5.05
2022-07-25T01:57:50.329Z,5.28
2022-07-25T02:02:46.972Z,5.57
2022-07-25T02:07:43.207Z,4.90
2022-07-25T02:12:39.470Z,5.10
2022-07-25T02:17:35.777Z,4.63
2022-07-25T02:22:32.390Z,4.88
2022-07-25T02:27:28.622Z,5.18
2022-07-25T02:32:24.897Z,4.45
2022-07-25T02:37:21.176Z,4.40
2022-07-25T02:42:17.454Z,4.85
2022-07-25T02:47:13.718Z,4.80
2022-07-25T02:52:09.995Z,4.32
2022-07-25T02:57:06.254Z,4.38
2022-07-25T03:02:02.554Z,4.50
2022-07-25T03:06:58.860Z,4.03
2022-07-25T03:11:55.194Z,3.85
2022-07-25T03:16:51.480Z,3.65
2022-07-25T03:21:47.811Z,3.83
2022-07-25T03:26:44.195Z,4.18
2022-07-25T03:31:40.473Z,3.78
2022-07-25T03:36:36.806Z,3.55
2022-07-25T03:41:33.073Z,3.90
2022-07-25T03:46:29.393Z,4.05
2022-07-25T03:51:25.699Z,4.25
2022-07-25T03:56:22.134Z,3.80
2022-07-25T04:01:18.436Z,3.58
2022-07-25T04:06:15.683Z,4.18
2022-07-25T04:11:11.971Z,3.45
2022-07-25T04:16:11.668Z,3.78
2022-07-25T04:21:11.025Z,3.97
2022-07-25T04:26:07.722Z,4.15
2022-07-25T04:31:03.983Z,3.90
2022-07-25T04:36:00.298Z,3.47
2022-07-25T04:40:56.538Z,3.70
2022-07-25T04:45:52.793Z,3.60
2022-07-25T04:50:49.182Z,4.03
2022-07-25T04:55:45.518Z,3.63
2022-07-25T05:00:42.127Z,3.63
2022-07-25T05:05:38.466Z,3.70
2022-07-25T05:10:34.763Z,3.70
2022-07-25T05:15:31.049Z,4.30
2022-07-25T05:20:27.705Z,3.58
2022-07-25T05:25:25.247Z,4.03
2022-07-25T05:30:21.682Z,3.75
2022-07-25T05:35:17.929Z,4.30
2022-07-25T05:40:14.374Z,4.00
2022-07-25T05:45:10.715Z,4.82
2022-07-25T05:50:07.603Z,4.63
2022-07-25T05:55:04.214Z,3.58
2022-07-25T06:00:00.493Z,4.32
2022-07-25T06:04:56.808Z,4.22
2022-07-25T06:09:53.067Z,4.30
2022-07-25T06:14:49.334Z,4.15
2022-07-25T06:19:46.375Z,4.30
2022-07-25T06:24:42.623Z,4.15
2022-07-25T06:29:39.264Z,4.25
2022-07-25T06:34:35.582Z,4.28
2022-07-25T06:39:31.946Z,4.30
2022-07-25T06:44:28.168Z,4.07
2022-07-25T06:49:24.412Z,4.40
2022-07-25T06:54:20.837Z,4.40
2022-07-25T06:59:17.126Z,4.20
2022-07-25T07:04:13.351Z,4.18
2022-07-25T07:09:09.885Z,4.47
2022-07-25T07:14:06.556Z,4.60
2022-07-25T07:19:03.325Z,5.00
2022-07-25T07:23:59.911Z,4.78
2022-07-25T07:28:56.187Z,4.72
2022-07-25T07:33:52.453Z,5.28
2022-07-25T07:38:48.676Z,4.57
2022-07-25T07:43:45.293Z,4.60
2022-07-25T07:48:41.662Z,6.15
2022-07-25T07:53:56.735Z,4.93
2022-07-25T07:58:52.990Z,5.13
2022-07-25T08:03:49.210Z,5.30
2022-07-25T08:08:46.035Z,4.95
2022-07-25T08:13:42.273Z,5.47
2022-07-25T08:18:38.595Z,5.50
2022-07-25T08:23:35.482Z,5.47
2022-07-25T08:28:32.075Z,5.68
2022-07-25T08:33:28.486Z,5.25
2022-07-25T08:38:26.074Z,6.38
2022-07-25T08:43:22.583Z,6.18
2022-07-25T08:48:22.445Z,6.90
2022-07-25T08:53:35.900Z,7.00
2022-07-25T08:58:32.449Z,6.93
2022-07-25T09:03:28.779Z,6.75
2022-07-25T09:08:25.090Z,6.45
2022-07-25T09:13:22.200Z,6.85
2022-07-25T09:18:21.871Z,6.95
2022-07-25T09:23:27.169Z,7.15
2022-07-25T09:28:23.398Z,6.78
2022-07-25T09:33:19.711Z,7.90
2022-07-25T09:38:16.533Z,6.68
2022-07-25T09:43:12.802Z,7.72
2022-07-25T09:48:09.075Z,7.68
2022-07-25T09:53:05.472Z,7.25
2022-07-25T09:58:01.809Z,7.22
2022-07-25T10:03:18.422Z,8.40
2022-07-25T10:08:14.988Z,8.13
2022-07-25T10:13:15.231Z,7.93
2022-07-25T10:18:12.400Z,8.27
2022-07-25T10:23:20.812Z,7.88
2022-07-25T10:28:18.736Z,7.80
2022-07-25T10:33:17.601Z,8.20
2022-07-25T10:38:13.893Z,8.32
2022-07-25T10:43:13.159Z,8.13
2022-07-25T10:48:10.365Z,8.23
2022-07-25T10:53:09.099Z,7.93
2022-07-25T10:58:21.891Z,8.32
2022-07-25T11:03:18.785Z,8.13
2022-07-25T11:08:22.932Z,7.88
2022-07-25T11:13:19.408Z,8.02
2022-07-25T11:18:15.703Z,7.43
2022-07-25T11:23:11.965Z,8.23
2022-07-25T11:28:08.470Z,8.88
2022-07-25T11:33:04.723Z,8.15
2022-07-25T11:38:02.162Z,7.97
2022-07-25T11:42:59.532Z,7.45
2022-07-25T11:48:05.066Z,7.50
2022-07-25T11:53:02.201Z,7.95
2022-07-25T11:58:00.000Z,7.63
2022-07-25T12:03:06.309Z,8.07
2022-07-25T12:08:22.319Z,7.68
2022-07-25T12:13:22.575Z,8.23
2022-07-25T12:18:19.211Z,7.77
2022-07-25T12:23:15.461Z,7.63
2022-07-25T12:28:11.948Z,8.30
2022-07-25T12:33:08.290Z,7.32
2022-07-25T12:38:04.890Z,7.57
2022-07-25T12:43:01.259Z,8.05
2022-07-25T12:47:57.583Z,8.15
2022-07-25T12:52:53.960Z,8.18
2022-07-25T12:57:50.217Z,7.60
2022-07-25T13:02:47.235Z,8.20
2022-07-25T13:07:43.758Z,7.72
2022-07-25T13:12:40.087Z,7.82
2022-07-25T13:17:37.184Z,8.15
2022-07-25T13:22:33.500Z,8.02
2022-07-25T13:27:29.789Z,7.93
2022-07-25T13:32:28.236Z,7.95
2022-07-25T13:37:24.560Z,8.15
2022-07-25T13:42:20.863Z,8.20
2022-07-25T13:47:17.207Z,8.48
2022-07-25T13:52:13.534Z,8.50
2022-07-25T13:57:09.773Z,7.85
2022-07-25T14:02:06.064Z,7.97
2022-07-25T14:07:02.787Z,8.27
2022-07-25T14:11:59.074Z,7.28
2022-07-25T14:16:55.529Z,7.85
2022-07-25T14:21:51.915Z,9.18
2022-07-25T14:26:49.566Z,9.48
2022-07-25T14:31:45.885Z,9.90
2022-07-25T14:36:42.311Z,10.35
2022-07-25T14:41:38.587Z,11.60
2022-07-25T14:46:35.545Z,9.20
2022-07-25T14:51:33.141Z,10.05
2022-07-25T14:56:29.456Z,10.15
2022-07-25T15:01:25.808Z,8.57
2022-07-25T15:06:27.377Z,7.45
2022-07-25T15:11:25.730Z,6.72
2022-07-25T15:16:22.082Z,7.80
2022-07-25T15:21:18.384Z,6.70
2022-07-25T15:26:14.682Z,6.13
2022-07-25T15:31:11.106Z,5.60
2022-07-25T15:36:07.632Z,5.32
2022-07-25T15:41:03.939Z,5.35
2022-07-25T15:46:00.224Z,4.80
2022-07-25T15:50:58.666Z,5.13
2022-07-25T15:55:55.073Z,4.65
2022-07-25T16:00:51.337Z,4.80
2022-07-25T16:05:47.630Z,5.45
2022-07-25T16:10:43.857Z,4.95
2022-07-25T16:15:40.229Z,4.75
2022-07-25T16:20:36.585Z,5.25
2022-07-25T16:25:32.864Z,5.07
2022-07-25T16:30:29.105Z,5.38
2022-07-25T16:35:25.439Z,5.47
2022-07-25T16:40:22.987Z,4.75
2022-07-25T16:45:22.313Z,5.63
2022-07-25T16:50:18.659Z,5.50
2022-07-25T16:55:15.025Z,5.25
2022-07-25T17:00:12.050Z,4.78
2022-07-25T17:05:08.618Z,4.57
2022-07-25T17:10:05.135Z,4.75
2022-07-25T17:15:01.443Z,4.80
2022-07-25T17:20:00.017Z,5.55
2022-07-25T17:24:56.589Z,4.68
2022-07-25T17:29:52.874Z,4.82
2022-07-25T17:34:49.213Z,4.28
2022-07-25T17:39:45.472Z,3.55
2022-07-25T17:44:41.751Z,3.72
2022-07-25T17:49:38.047Z,4.38
2022-07-25T17:54:34.281Z,4.82
2022-07-25T17:59:30.580Z,4.15
2022-07-25T18:04:27.183Z,3.17
2022-07-25T18:09:24.095Z,4.57
2022-07-25T18:14:20.520Z,3.53
2022-07-25T18:19:16.824Z,3.95
2022-07-25T18:24:13.436Z,4.90
2022-07-25T18:29:09.777Z,4.05
2022-07-25T18:34:06.314Z,3.30
2022-07-25T18:39:03.367Z,4.22
2022-07-25T18:44:01.144Z,6.20
2022-07-25T18:48:58.440Z,4.63
2022-07-25T18:53:54.741Z,4.68
2022-07-25T18:58:51.043Z,4.30
2022-07-25T19:03:47.514Z,3.53
2022-07-25T19:08:43.805Z,3.88
2022-07-25T19:13:49.327Z,3.58
2022-07-25T19:18:46.742Z,3.85
2022-07-25T19:23:49.788Z,3.42
2022-07-25T19:28:47.233Z,3.58
2022-07-25T19:33:45.788Z,4.18
2022-07-25T19:38:42.080Z,4.68
2022-07-25T19:43:38.318Z,3.40
2022-07-25T19:48:34.645Z,3.53
2022-07-25T19:53:31.608Z,2.83
2022-07-25T19:58:27.910Z,3.30
2022-07-25T20:03:24.208Z,3.28
2022-07-25T20:08:20.496Z,2.88
2022-07-25T20:13:16.814Z,2.83
2022-07-25T20:18:18.957Z,2.50
2022-07-25T20:23:15.885Z,2.85
2022-07-25T20:28:12.180Z,2.67
2022-07-25T20:33:09.160Z,2.75
2022-07-25T20:38:09.164Z,3.03
2022-07-25T20:43:09.798Z,3.45
2022-07-25T20:48:06.200Z,3.10
2022-07-25T20:53:02.919Z,3.25
2022-07-25T20:57:59.328Z,3.13
2022-07-25T21:02:56.228Z,3.88
2022-07-25T21:07:52.771Z,2.60
2022-07-25T21:12:49.097Z,3.83
2022-07-25T21:17:45.412Z,2.95
2022-07-25T21:22:42.057Z,2.65
2022-07-25T21:27:39.153Z,3.60
2022-07-25T21:32:35.497Z,3.63
2022-07-25T21:37:32.227Z,3.28
2022-07-25T21:42:28.459Z,3.40
2022-07-25T21:47:24.717Z,3.50
2022-07-25T21:52:30.234Z,3.35
2022-07-25T21:57:31.146Z,3.53
2022-07-25T22:02:27.524Z,3.60
2022-07-25T22:07:25.085Z,3.13
2022-07-25T22:12:21.472Z,2.88
2022-07-25T22:17:17.730Z,3.03
2022-07-25T22:22:14.001Z,3.83
2022-07-25T22:27:10.277Z,3.30
2022-07-25T22:32:06.598Z,3.70
2022-07-25T22:37:02.913Z,3.40
2022-07-25T22:41:59.158Z,3.80
2022-07-25T22:46:55.390Z,3.10
2022-07-25T22:51:51.755Z,3.30
2022-07-25T22:56:48.000Z,3.30
2022-07-25T23:01:44.319Z,3.28
2022-07-25T23:06:40.635Z,3.38
2022-07-25T23:11:37.192Z,3.25
2022-07-25T23:16:33.598Z,2.50
2022-07-25T23:21:29.974Z,3.03
2022-07-25T23:26:27.187Z,3.17
2022-07-25T23:31:23.598Z,2.40
2022-07-25T23:36:19.931Z,3.30
2022-07-25T23:41:16.176Z,3.45
2022-07-25T23:46:12.450Z,2.80
2022-07-25T23:51:09.212Z,3.65
2022-07-25T23:56:05.583Z,2.70
